sensor_id;sensor_type;location;lat;lon;timestamp;temperature;humidity
75738;DHT22;64356;45.638;13.764;2023-04-06T00:01:49;21.20;35.40
75738;DHT22;64356;45.638;13.764;2023-04-06T00:04:15;21.20;35.50
75738;DHT22;64356;45.638;13.764;2023-04-06T00:06:41;21.20;35.50
75738;DHT22;64356;45.638;13.764;2023-04-06T00:09:07;21.20;35.50
75738;DHT22;64356;45.638;13.764;2023-04-06T00:11:33;21.20;35.40
75738;DHT22;64356;45.638;13.764;2023-04-06T00:13:59;21.20;35.50
75738;DHT22;64356;45.638;13.764;2023-04-06T00:16:25;21.20;35.50
75738;DHT22;64356;45.638;13.764;2023-04-06T00:18:51;21.20;35.50
75738;DHT22;64356;45.638;13.764;2023-04-06T00:21:17;21.20;35.50
75738;DHT22;64356;45.638;13.764;2023-04-06T00:23:43;21.20;35.50
75738;DHT22;64356;45.638;13.764;2023-04-06T00:26:09;21.20;35.50
75738;DHT22;64356;45.638;13.764;2023-04-06T00:28:36;21.20;35.60
75738;DHT22;64356;45.638;13.764;2023-04-06T00:31:02;21.20;35.60
75738;DHT22;64356;45.638;13.764;2023-04-06T00:33:28;21.20;35.60
75738;DHT22;64356;45.638;13.764;2023-04-06T00:35:53;21.20;35.60
75738;DHT22;64356;45.638;13.764;2023-04-06T00:38:19;21.20;35.60
75738;DHT22;64356;45.638;13.764;2023-04-06T00:40:46;21.10;35.60
75738;DHT22;64356;45.638;13.764;2023-04-06T00:43:12;21.20;35.70
75738;DHT22;64356;45.638;13.764;2023-04-06T00:45:39;21.10;35.60
75738;DHT22;64356;45.638;13.764;2023-04-06T00:48:06;21.10;35.60
75738;DHT22;64356;45.638;13.764;2023-04-06T00:50:32;21.10;35.60
75738;DHT22;64356;45.638;13.764;2023-04-06T00:52:59;21.10;35.70
75738;DHT22;64356;45.638;13.764;2023-04-06T00:55:26;21.10;35.70
75738;DHT22;64356;45.638;13.764;2023-04-06T00:57:52;21.10;35.70
75738;DHT22;64356;45.638;13.764;2023-04-06T01:00:18;21.10;35.70
75738;DHT22;64356;45.638;13.764;2023-04-06T01:02:43;21.10;35.70
75738;DHT22;64356;45.638;13.764;2023-04-06T01:05:10;21.10;35.70
75738;DHT22;64356;45.638;13.764;2023-04-06T01:07:36;21.10;36.30
75738;DHT22;64356;45.638;13.764;2023-04-06T01:10:02;21.10;35.70
75738;DHT22;64356;45.638;13.764;2023-04-06T01:12:29;21.10;35.70
75738;DHT22;64356;45.638;13.764;2023-04-06T01:14:55;21.10;35.70
75738;DHT22;64356;45.638;13.764;2023-04-06T01:17:21;21.10;35.70
75738;DHT22;64356;45.638;13.764;2023-04-06T01:19:46;21.10;35.70
75738;DHT22;64356;45.638;13.764;2023-04-06T01:22:18;21.10;35.80
75738;DHT22;64356;45.638;13.764;2023-04-06T01:24:44;21.10;35.80
75738;DHT22;64356;45.638;13.764;2023-04-06T01:27:10;21.10;35.80
75738;DHT22;64356;45.638;13.764;2023-04-06T01:29:36;21.10;35.80
75738;DHT22;64356;45.638;13.764;2023-04-06T01:32:02;21.10;35.90
75738;DHT22;64356;45.638;13.764;2023-04-06T01:34:28;21.10;35.80
75738;DHT22;64356;45.638;13.764;2023-04-06T01:36:54;21.10;36.40
75738;DHT22;64356;45.638;13.764;2023-04-06T01:39:20;21.10;35.90
75738;DHT22;64356;45.638;13.764;2023-04-06T01:41:45;21.10;35.90
75738;DHT22;64356;45.638;13.764;2023-04-06T01:44:15;21.10;35.80
75738;DHT22;64356;45.638;13.764;2023-04-06T01:46:41;21.10;35.90
75738;DHT22;64356;45.638;13.764;2023-04-06T01:49:07;21.10;36.00
75738;DHT22;64356;45.638;13.764;2023-04-06T01:51:33;21.10;36.00
75738;DHT22;64356;45.638;13.764;2023-04-06T01:53:58;21.10;36.00
75738;DHT22;64356;45.638;13.764;2023-04-06T01:56:24;21.10;35.90
75738;DHT22;64356;45.638;13.764;2023-04-06T01:58:50;21.00;35.80
75738;DHT22;64356;45.638;13.764;2023-04-06T02:01:15;21.00;35.90
75738;DHT22;64356;45.638;13.764;2023-04-06T02:03:41;21.10;36.00
75738;DHT22;64356;45.638;13.764;2023-04-06T02:06:07;21.00;36.00
75738;DHT22;64356;45.638;13.764;2023-04-06T02:08:32;21.00;36.00
75738;DHT22;64356;45.638;13.764;2023-04-06T02:10:58;21.00;36.00
75738;DHT22;64356;45.638;13.764;2023-04-06T02:13:24;21.00;36.00
75738;DHT22;64356;45.638;13.764;2023-04-06T02:15:50;21.00;36.10
75738;DHT22;64356;45.638;13.764;2023-04-06T02:18:15;21.00;36.00
75738;DHT22;64356;45.638;13.764;2023-04-06T02:20:43;21.00;36.10
75738;DHT22;64356;45.638;13.764;2023-04-06T02:23:08;21.00;36.10
75738;DHT22;64356;45.638;13.764;2023-04-06T02:25:34;21.00;36.20
75738;DHT22;64356;45.638;13.764;2023-04-06T02:28:00;21.00;36.10
75738;DHT22;64356;45.638;13.764;2023-04-06T02:30:26;21.00;36.10
75738;DHT22;64356;45.638;13.764;2023-04-06T02:32:52;21.00;36.10
75738;DHT22;64356;45.638;13.764;2023-04-06T02:35:17;21.00;36.20
75738;DHT22;64356;45.638;13.764;2023-04-06T02:37:43;21.00;36.10
75738;DHT22;64356;45.638;13.764;2023-04-06T02:40:09;21.00;36.20
75738;DHT22;64356;45.638;13.764;2023-04-06T02:42:35;21.00;36.20
75738;DHT22;64356;45.638;13.764;2023-04-06T02:45:01;21.00;36.20
75738;DHT22;64356;45.638;13.764;2023-04-06T02:47:27;21.00;36.20
75738;DHT22;64356;45.638;13.764;2023-04-06T02:49:52;21.00;36.20
75738;DHT22;64356;45.638;13.764;2023-04-06T02:52:18;21.00;36.20
75738;DHT22;64356;45.638;13.764;2023-04-06T02:54:44;21.00;36.30
75738;DHT22;64356;45.638;13.764;2023-04-06T02:57:10;21.00;36.40
75738;DHT22;64356;45.638;13.764;2023-04-06T02:59:35;21.00;36.30
75738;DHT22;64356;45.638;13.764;2023-04-06T03:02:01;21.00;36.30
75738;DHT22;64356;45.638;13.764;2023-04-06T03:04:27;21.00;36.40
75738;DHT22;64356;45.638;13.764;2023-04-06T03:06:54;21.00;36.30
75738;DHT22;64356;45.638;13.764;2023-04-06T03:09:20;21.00;36.20
75738;DHT22;64356;45.638;13.764;2023-04-06T03:11:46;21.00;36.20
75738;DHT22;64356;45.638;13.764;2023-04-06T03:14:11;21.00;36.90
75738;DHT22;64356;45.638;13.764;2023-04-06T03:16:37;20.90;36.20
75738;DHT22;64356;45.638;13.764;2023-04-06T03:19:03;21.00;36.30
75738;DHT22;64356;45.638;13.764;2023-04-06T03:21:28;20.90;36.30
75738;DHT22;64356;45.638;13.764;2023-04-06T03:23:54;20.90;36.90
75738;DHT22;64356;45.638;13.764;2023-04-06T03:26:20;20.90;36.30
75738;DHT22;64356;45.638;13.764;2023-04-06T03:28:47;20.90;36.30
75738;DHT22;64356;45.638;13.764;2023-04-06T03:31:13;21.00;36.40
75738;DHT22;64356;45.638;13.764;2023-04-06T03:33:39;20.90;36.50
75738;DHT22;64356;45.638;13.764;2023-04-06T03:36:05;20.90;36.50
75738;DHT22;64356;45.638;13.764;2023-04-06T03:38:32;20.90;36.50
75738;DHT22;64356;45.638;13.764;2023-04-06T03:40:57;20.90;36.40
75738;DHT22;64356;45.638;13.764;2023-04-06T03:43:23;20.90;36.50
75738;DHT22;64356;45.638;13.764;2023-04-06T03:45:49;20.90;36.50
75738;DHT22;64356;45.638;13.764;2023-04-06T03:48:15;20.90;36.40
75738;DHT22;64356;45.638;13.764;2023-04-06T03:50:41;20.90;36.40
75738;DHT22;64356;45.638;13.764;2023-04-06T03:53:06;20.90;36.50
75738;DHT22;64356;45.638;13.764;2023-04-06T03:55:32;20.90;36.40
75738;DHT22;64356;45.638;13.764;2023-04-06T03:57:58;20.90;36.40
75738;DHT22;64356;45.638;13.764;2023-04-06T04:00:24;20.90;36.50
75738;DHT22;64356;45.638;13.764;2023-04-06T04:02:50;20.90;36.50
75738;DHT22;64356;45.638;13.764;2023-04-06T04:05:16;20.90;36.50
75738;DHT22;64356;45.638;13.764;2023-04-06T04:07:41;20.90;36.50
75738;DHT22;64356;45.638;13.764;2023-04-06T04:10:07;20.90;36.40
75738;DHT22;64356;45.638;13.764;2023-04-06T04:12:33;20.90;36.50
75738;DHT22;64356;45.638;13.764;2023-04-06T04:14:59;20.90;36.60
75738;DHT22;64356;45.638;13.764;2023-04-06T04:17:25;20.90;36.60
75738;DHT22;64356;45.638;13.764;2023-04-06T04:19:50;21.10;36.00
75738;DHT22;64356;45.638;13.764;2023-04-06T04:22:16;21.30;35.40
75738;DHT22;64356;45.638;13.764;2023-04-06T04:24:42;21.50;34.90
75738;DHT22;64356;45.638;13.764;2023-04-06T04:27:07;21.70;34.20
75738;DHT22;64356;45.638;13.764;2023-04-06T04:29:33;21.80;34.10
75738;DHT22;64356;45.638;13.764;2023-04-06T04:31:59;21.90;34.00
75738;DHT22;64356;45.638;13.764;2023-04-06T04:34:25;22.00;33.70
75738;DHT22;64356;45.638;13.764;2023-04-06T04:36:51;22.00;33.40
75738;DHT22;64356;45.638;13.764;2023-04-06T04:39:17;22.10;33.40
75738;DHT22;64356;45.638;13.764;2023-04-06T04:41:43;22.10;33.40
75738;DHT22;64356;45.638;13.764;2023-04-06T04:44:08;22.10;33.30
75738;DHT22;64356;45.638;13.764;2023-04-06T04:46:34;22.20;33.30
75738;DHT22;64356;45.638;13.764;2023-04-06T04:49:00;22.20;33.30
75738;DHT22;64356;45.638;13.764;2023-04-06T04:51:26;22.30;33.10
75738;DHT22;64356;45.638;13.764;2023-04-06T04:53:51;22.30;33.10
75738;DHT22;64356;45.638;13.764;2023-04-06T04:56:17;22.30;33.00
75738;DHT22;64356;45.638;13.764;2023-04-06T04:58:44;22.30;32.80
75738;DHT22;64356;45.638;13.764;2023-04-06T05:01:10;22.40;32.70
75738;DHT22;64356;45.638;13.764;2023-04-06T05:03:36;22.40;32.80
75738;DHT22;64356;45.638;13.764;2023-04-06T05:06:04;22.40;32.70
75738;DHT22;64356;45.638;13.764;2023-04-06T05:08:30;22.50;32.80
75738;DHT22;64356;45.638;13.764;2023-04-06T05:10:56;22.50;32.80
75738;DHT22;64356;45.638;13.764;2023-04-06T05:13:22;22.60;32.80
75738;DHT22;64356;45.638;13.764;2023-04-06T05:15:47;22.60;32.70
75738;DHT22;64356;45.638;13.764;2023-04-06T05:18:13;22.60;32.50
75738;DHT22;64356;45.638;13.764;2023-04-06T05:20:39;22.60;32.60
75738;DHT22;64356;45.638;13.764;2023-04-06T05:23:05;22.70;32.50
75738;DHT22;64356;45.638;13.764;2023-04-06T05:25:31;22.70;32.40
75738;DHT22;64356;45.638;13.764;2023-04-06T05:27:57;22.70;32.40
75738;DHT22;64356;45.638;13.764;2023-04-06T05:30:23;22.80;32.00
75738;DHT22;64356;45.638;13.764;2023-04-06T05:32:49;22.80;31.20
75738;DHT22;64356;45.638;13.764;2023-04-06T05:35:15;22.80;31.30
75738;DHT22;64356;45.638;13.764;2023-04-06T05:37:42;22.80;31.50
75738;DHT22;64356;45.638;13.764;2023-04-06T05:40:08;22.80;31.40
75738;DHT22;64356;45.638;13.764;2023-04-06T05:42:38;22.90;31.40
75738;DHT22;64356;45.638;13.764;2023-04-06T05:45:05;22.90;31.40
75738;DHT22;64356;45.638;13.764;2023-04-06T05:47:31;22.90;31.40
75738;DHT22;64356;45.638;13.764;2023-04-06T05:49:57;23.00;31.60
75738;DHT22;64356;45.638;13.764;2023-04-06T05:52:23;23.00;31.90
75738;DHT22;64356;45.638;13.764;2023-04-06T05:54:48;23.10;31.60
75738;DHT22;64356;45.638;13.764;2023-04-06T05:57:14;23.10;31.80
75738;DHT22;64356;45.638;13.764;2023-04-06T05:59:42;23.10;31.50
75738;DHT22;64356;45.638;13.764;2023-04-06T06:02:07;23.20;31.50
75738;DHT22;64356;45.638;13.764;2023-04-06T06:04:33;23.20;31.30
75738;DHT22;64356;45.638;13.764;2023-04-06T06:06:59;23.30;31.50
75738;DHT22;64356;45.638;13.764;2023-04-06T06:09:25;23.30;31.50
75738;DHT22;64356;45.638;13.764;2023-04-06T06:11:51;23.30;31.30
75738;DHT22;64356;45.638;13.764;2023-04-06T06:14:17;23.40;31.40
75738;DHT22;64356;45.638;13.764;2023-04-06T06:16:43;23.40;31.20
75738;DHT22;64356;45.638;13.764;2023-04-06T06:19:09;23.50;31.20
75738;DHT22;64356;45.638;13.764;2023-04-06T06:21:34;23.60;31.20
75738;DHT22;64356;45.638;13.764;2023-04-06T06:24:00;23.60;31.10
75738;DHT22;64356;45.638;13.764;2023-04-06T06:26:26;23.70;31.20
75738;DHT22;64356;45.638;13.764;2023-04-06T06:28:52;23.70;31.00
75738;DHT22;64356;45.638;13.764;2023-04-06T06:31:17;23.70;31.30
75738;DHT22;64356;45.638;13.764;2023-04-06T06:33:46;23.80;31.10
75738;DHT22;64356;45.638;13.764;2023-04-06T06:36:13;23.90;31.40
75738;DHT22;64356;45.638;13.764;2023-04-06T06:38:38;23.90;31.20
75738;DHT22;64356;45.638;13.764;2023-04-06T06:41:04;23.90;31.10
75738;DHT22;64356;45.638;13.764;2023-04-06T06:43:30;23.90;31.00
75738;DHT22;64356;45.638;13.764;2023-04-06T06:45:56;23.90;31.10
75738;DHT22;64356;45.638;13.764;2023-04-06T06:48:21;23.90;31.10
75738;DHT22;64356;45.638;13.764;2023-04-06T06:50:48;23.90;31.20
75738;DHT22;64356;45.638;13.764;2023-04-06T06:53:14;23.90;31.00
75738;DHT22;64356;45.638;13.764;2023-04-06T06:55:40;23.90;31.10
75738;DHT22;64356;45.638;13.764;2023-04-06T06:58:06;23.90;30.60
75738;DHT22;64356;45.638;13.764;2023-04-06T07:00:32;23.90;30.70
75738;DHT22;64356;45.638;13.764;2023-04-06T07:02:58;23.90;30.60
75738;DHT22;64356;45.638;13.764;2023-04-06T07:05:23;23.90;30.80
75738;DHT22;64356;45.638;13.764;2023-04-06T07:07:49;23.90;30.90
75738;DHT22;64356;45.638;13.764;2023-04-06T07:10:15;23.90;30.60
75738;DHT22;64356;45.638;13.764;2023-04-06T07:12:41;23.90;30.60
75738;DHT22;64356;45.638;13.764;2023-04-06T07:15:07;23.90;30.90
75738;DHT22;64356;45.638;13.764;2023-04-06T07:17:33;23.90;30.90
75738;DHT22;64356;45.638;13.764;2023-04-06T07:19:59;23.90;30.90
75738;DHT22;64356;45.638;13.764;2023-04-06T07:22:24;23.90;30.90
75738;DHT22;64356;45.638;13.764;2023-04-06T07:24:50;24.00;31.00
75738;DHT22;64356;45.638;13.764;2023-04-06T07:27:16;24.00;30.90
75738;DHT22;64356;45.638;13.764;2023-04-06T07:29:44;24.00;31.00
75738;DHT22;64356;45.638;13.764;2023-04-06T07:32:10;24.00;30.90
75738;DHT22;64356;45.638;13.764;2023-04-06T07:34:35;24.00;30.90
75738;DHT22;64356;45.638;13.764;2023-04-06T07:37:01;24.00;30.90
75738;DHT22;64356;45.638;13.764;2023-04-06T07:39:28;24.00;31.00
75738;DHT22;64356;45.638;13.764;2023-04-06T07:41:55;24.00;31.00
75738;DHT22;64356;45.638;13.764;2023-04-06T07:44:20;24.10;30.90
75738;DHT22;64356;45.638;13.764;2023-04-06T07:46:46;24.10;31.00
75738;DHT22;64356;45.638;13.764;2023-04-06T07:49:12;24.10;31.00
75738;DHT22;64356;45.638;13.764;2023-04-06T07:51:38;24.10;31.10
75738;DHT22;64356;45.638;13.764;2023-04-06T07:54:04;24.10;31.10
75738;DHT22;64356;45.638;13.764;2023-04-06T07:56:30;24.10;31.00
75738;DHT22;64356;45.638;13.764;2023-04-06T07:58:56;24.10;30.90
75738;DHT22;64356;45.638;13.764;2023-04-06T08:01:23;24.10;31.30
75738;DHT22;64356;45.638;13.764;2023-04-06T08:03:48;24.10;31.50
75738;DHT22;64356;45.638;13.764;2023-04-06T08:06:14;24.10;31.30
75738;DHT22;64356;45.638;13.764;2023-04-06T08:08:41;24.10;31.40
75738;DHT22;64356;45.638;13.764;2023-04-06T08:11:07;24.10;31.00
75738;DHT22;64356;45.638;13.764;2023-04-06T08:13:33;24.10;31.10
75738;DHT22;64356;45.638;13.764;2023-04-06T08:15:59;24.10;31.60
75738;DHT22;64356;45.638;13.764;2023-04-06T08:18:25;24.10;31.60
75738;DHT22;64356;45.638;13.764;2023-04-06T08:20:51;24.10;31.70
75738;DHT22;64356;45.638;13.764;2023-04-06T08:23:17;24.20;31.60
75738;DHT22;64356;45.638;13.764;2023-04-06T08:25:44;24.20;31.60
75738;DHT22;64356;45.638;13.764;2023-04-06T08:28:09;24.20;31.50
75738;DHT22;64356;45.638;13.764;2023-04-06T08:30:35;24.20;31.70
75738;DHT22;64356;45.638;13.764;2023-04-06T08:33:02;24.20;31.30
75738;DHT22;64356;45.638;13.764;2023-04-06T08:35:28;24.10;27.90
75738;DHT22;64356;45.638;13.764;2023-04-06T08:37:54;23.90;26.00
75738;DHT22;64356;45.638;13.764;2023-04-06T08:40:19;23.70;25.20
75738;DHT22;64356;45.638;13.764;2023-04-06T08:42:50;23.50;25.10
75738;DHT22;64356;45.638;13.764;2023-04-06T08:45:18;23.30;26.00
75738;DHT22;64356;45.638;13.764;2023-04-06T08:47:52;23.40;26.60
75738;DHT22;64356;45.638;13.764;2023-04-06T08:50:20;23.50;27.40
75738;DHT22;64356;45.638;13.764;2023-04-06T08:52:49;23.60;27.80
75738;DHT22;64356;45.638;13.764;2023-04-06T08:55:15;23.80;28.40
75738;DHT22;64356;45.638;13.764;2023-04-06T08:57:42;23.90;28.80
75738;DHT22;64356;45.638;13.764;2023-04-06T09:00:10;23.90;29.10
75738;DHT22;64356;45.638;13.764;2023-04-06T09:02:41;24.00;29.70
75738;DHT22;64356;45.638;13.764;2023-04-06T09:05:08;24.10;29.50
75738;DHT22;64356;45.638;13.764;2023-04-06T09:07:36;24.10;29.70
75738;DHT22;64356;45.638;13.764;2023-04-06T09:10:03;24.10;29.90
75738;DHT22;64356;45.638;13.764;2023-04-06T09:12:31;24.20;29.90
75738;DHT22;64356;45.638;13.764;2023-04-06T09:14:57;24.20;29.80
75738;DHT22;64356;45.638;13.764;2023-04-06T09:17:25;24.30;29.90
75738;DHT22;64356;45.638;13.764;2023-04-06T09:19:52;24.30;29.90
75738;DHT22;64356;45.638;13.764;2023-04-06T09:22:18;24.30;29.80
75738;DHT22;64356;45.638;13.764;2023-04-06T09:24:49;24.40;29.70
75738;DHT22;64356;45.638;13.764;2023-04-06T09:27:15;24.40;29.80
75738;DHT22;64356;45.638;13.764;2023-04-06T09:29:42;24.40;29.70
75738;DHT22;64356;45.638;13.764;2023-04-06T09:32:10;24.30;29.60
75738;DHT22;64356;45.638;13.764;2023-04-06T09:34:40;24.40;29.60
75738;DHT22;64356;45.638;13.764;2023-04-06T09:37:18;24.40;29.80
75738;DHT22;64356;45.638;13.764;2023-04-06T09:39:45;24.40;30.00
75738;DHT22;64356;45.638;13.764;2023-04-06T09:42:26;24.40;30.00
75738;DHT22;64356;45.638;13.764;2023-04-06T09:44:52;24.40;30.10
75738;DHT22;64356;45.638;13.764;2023-04-06T09:47:18;24.40;30.20
75738;DHT22;64356;45.638;13.764;2023-04-06T09:49:47;24.50;30.40
75738;DHT22;64356;45.638;13.764;2023-04-06T09:52:14;24.50;30.40
75738;DHT22;64356;45.638;13.764;2023-04-06T09:54:41;24.50;30.60
75738;DHT22;64356;45.638;13.764;2023-04-06T09:59:58;24.50;30.50
75738;DHT22;64356;45.638;13.764;2023-04-06T10:05:43;24.50;30.50
75738;DHT22;64356;45.638;13.764;2023-04-06T10:08:13;24.60;30.70
75738;DHT22;64356;45.638;13.764;2023-04-06T10:10:39;24.60;30.70
75738;DHT22;64356;45.638;13.764;2023-04-06T10:13:05;24.50;29.30
75738;DHT22;64356;45.638;13.764;2023-04-06T10:15:31;24.40;28.70
75738;DHT22;64356;45.638;13.764;2023-04-06T10:18:01;24.30;28.10
75738;DHT22;64356;45.638;13.764;2023-04-06T10:23:31;24.00;27.90
75738;DHT22;64356;45.638;13.764;2023-04-06T10:25:59;23.80;26.50
75738;DHT22;64356;45.638;13.764;2023-04-06T10:28:26;23.60;25.70
75738;DHT22;64356;45.638;13.764;2023-04-06T10:31:00;23.40;25.50
75738;DHT22;64356;45.638;13.764;2023-04-06T10:33:26;23.20;25.70
75738;DHT22;64356;45.638;13.764;2023-04-06T10:35:52;23.20;25.80
75738;DHT22;64356;45.638;13.764;2023-04-06T10:38:19;23.20;25.40
75738;DHT22;64356;45.638;13.764;2023-04-06T10:40:49;23.20;25.50
75738;DHT22;64356;45.638;13.764;2023-04-06T10:43:22;23.40;25.50
75738;DHT22;64356;45.638;13.764;2023-04-06T10:45:59;23.40;25.30
75738;DHT22;64356;45.638;13.764;2023-04-06T10:48:42;23.60;25.90
75738;DHT22;64356;45.638;13.764;2023-04-06T10:51:11;23.80;26.90
75738;DHT22;64356;45.638;13.764;2023-04-06T10:53:37;23.90;27.50
75738;DHT22;64356;45.638;13.764;2023-04-06T10:56:04;24.10;27.90
75738;DHT22;64356;45.638;13.764;2023-04-06T10:58:30;24.20;27.90
75738;DHT22;64356;45.638;13.764;2023-04-06T11:00:56;24.40;28.50
75738;DHT22;64356;45.638;13.764;2023-04-06T11:03:22;24.50;28.50
75738;DHT22;64356;45.638;13.764;2023-04-06T11:05:50;24.50;27.10
75738;DHT22;64356;45.638;13.764;2023-04-06T11:08:27;24.50;27.40
75738;DHT22;64356;45.638;13.764;2023-04-06T11:11:07;24.50;28.00
75738;DHT22;64356;45.638;13.764;2023-04-06T11:13:41;24.50;29.10
75738;DHT22;64356;45.638;13.764;2023-04-06T11:16:11;24.60;29.00
75738;DHT22;64356;45.638;13.764;2023-04-06T11:18:37;24.70;29.50
75738;DHT22;64356;45.638;13.764;2023-04-06T11:21:03;24.70;29.60
75738;DHT22;64356;45.638;13.764;2023-04-06T11:23:29;24.80;29.60
75738;DHT22;64356;45.638;13.764;2023-04-06T11:25:54;24.90;29.80
75738;DHT22;64356;45.638;13.764;2023-04-06T11:28:20;24.90;29.90
75738;DHT22;64356;45.638;13.764;2023-04-06T11:30:46;24.90;30.00
75738;DHT22;64356;45.638;13.764;2023-04-06T11:33:20;25.00;30.00
75738;DHT22;64356;45.638;13.764;2023-04-06T11:35:46;25.10;30.00
75738;DHT22;64356;45.638;13.764;2023-04-06T11:38:12;25.10;29.90
75738;DHT22;64356;45.638;13.764;2023-04-06T11:40:38;25.10;30.00
75738;DHT22;64356;45.638;13.764;2023-04-06T11:43:04;25.20;30.50
75738;DHT22;64356;45.638;13.764;2023-04-06T11:45:41;25.20;30.50
75738;DHT22;64356;45.638;13.764;2023-04-06T11:48:20;25.20;30.50
75738;DHT22;64356;45.638;13.764;2023-04-06T11:50:48;25.20;29.50
75738;DHT22;64356;45.638;13.764;2023-04-06T11:53:14;25.10;29.80
75738;DHT22;64356;45.638;13.764;2023-04-06T11:55:40;25.10;30.00
75738;DHT22;64356;45.638;13.764;2023-04-06T11:58:06;25.10;30.30
75738;DHT22;64356;45.638;13.764;2023-04-06T12:00:32;25.10;30.60
75738;DHT22;64356;45.638;13.764;2023-04-06T12:03:00;25.10;30.70
75738;DHT22;64356;45.638;13.764;2023-04-06T12:05:27;25.10;30.40
75738;DHT22;64356;45.638;13.764;2023-04-06T12:07:53;25.10;30.70
75738;DHT22;64356;45.638;13.764;2023-04-06T12:10:19;25.10;30.70
75738;DHT22;64356;45.638;13.764;2023-04-06T12:12:45;25.10;30.70
75738;DHT22;64356;45.638;13.764;2023-04-06T12:15:11;25.10;30.60
75738;DHT22;64356;45.638;13.764;2023-04-06T12:17:37;25.10;30.80
75738;DHT22;64356;45.638;13.764;2023-04-06T12:20:02;25.10;30.70
75738;DHT22;64356;45.638;13.764;2023-04-06T12:22:28;25.10;30.80
75738;DHT22;64356;45.638;13.764;2023-04-06T12:24:54;25.20;30.90
75738;DHT22;64356;45.638;13.764;2023-04-06T12:27:20;25.20;30.90
75738;DHT22;64356;45.638;13.764;2023-04-06T12:29:47;25.10;30.90
75738;DHT22;64356;45.638;13.764;2023-04-06T12:32:13;25.10;30.80
75738;DHT22;64356;45.638;13.764;2023-04-06T12:34:38;25.10;31.00
75738;DHT22;64356;45.638;13.764;2023-04-06T12:37:04;25.20;31.10
75738;DHT22;64356;45.638;13.764;2023-04-06T12:39:30;25.10;31.10
75738;DHT22;64356;45.638;13.764;2023-04-06T12:41:56;25.10;31.20
75738;DHT22;64356;45.638;13.764;2023-04-06T12:44:22;25.10;31.10
75738;DHT22;64356;45.638;13.764;2023-04-06T12:46:48;25.10;31.20
75738;DHT22;64356;45.638;13.764;2023-04-06T12:49:14;25.00;31.10
75738;DHT22;64356;45.638;13.764;2023-04-06T12:51:42;25.00;31.20
75738;DHT22;64356;45.638;13.764;2023-04-06T12:54:07;25.00;31.20
75738;DHT22;64356;45.638;13.764;2023-04-06T12:56:33;25.00;31.30
75738;DHT22;64356;45.638;13.764;2023-04-06T12:58:59;25.00;31.50
75738;DHT22;64356;45.638;13.764;2023-04-06T13:01:24;24.90;31.60
75738;DHT22;64356;45.638;13.764;2023-04-06T13:03:53;24.90;31.60
75738;DHT22;64356;45.638;13.764;2023-04-06T13:06:19;24.90;31.60
75738;DHT22;64356;45.638;13.764;2023-04-06T13:08:44;24.90;31.70
75738;DHT22;64356;45.638;13.764;2023-04-06T13:11:12;24.90;31.70
75738;DHT22;64356;45.638;13.764;2023-04-06T13:13:38;24.80;31.80
75738;DHT22;64356;45.638;13.764;2023-04-06T13:16:09;24.80;31.80
75738;DHT22;64356;45.638;13.764;2023-04-06T13:18:35;24.80;31.90
75738;DHT22;64356;45.638;13.764;2023-04-06T13:21:06;24.80;31.90
75738;DHT22;64356;45.638;13.764;2023-04-06T13:23:32;24.80;32.00
75738;DHT22;64356;45.638;13.764;2023-04-06T13:28:25;24.80;32.10
75738;DHT22;64356;45.638;13.764;2023-04-06T13:30:52;24.70;32.20
75738;DHT22;64356;45.638;13.764;2023-04-06T13:33:17;24.70;32.10
75738;DHT22;64356;45.638;13.764;2023-04-06T13:35:46;24.70;32.00
75738;DHT22;64356;45.638;13.764;2023-04-06T13:38:13;24.60;29.50
75738;DHT22;64356;45.638;13.764;2023-04-06T13:40:39;24.50;28.00
75738;DHT22;64356;45.638;13.764;2023-04-06T13:43:06;24.30;27.20
75738;DHT22;64356;45.638;13.764;2023-04-06T13:45:32;24.10;26.80
75738;DHT22;64356;45.638;13.764;2023-04-06T13:47:58;23.90;26.40
75738;DHT22;64356;45.638;13.764;2023-04-06T13:50:26;23.70;26.60
75738;DHT22;64356;45.638;13.764;2023-04-06T13:52:52;23.60;26.70
75738;DHT22;64356;45.638;13.764;2023-04-06T13:55:17;23.50;26.80
75738;DHT22;64356;45.638;13.764;2023-04-06T13:57:43;23.40;27.00
75738;DHT22;64356;45.638;13.764;2023-04-06T14:00:09;23.30;26.70
75738;DHT22;64356;45.638;13.764;2023-04-06T14:02:37;23.30;26.30
75738;DHT22;64356;45.638;13.764;2023-04-06T14:05:02;23.30;26.10
75738;DHT22;64356;45.638;13.764;2023-04-06T14:07:28;23.20;26.40
75738;DHT22;64356;45.638;13.764;2023-04-06T14:09:54;23.20;26.50
75738;DHT22;64356;45.638;13.764;2023-04-06T14:12:20;23.10;26.20
75738;DHT22;64356;45.638;13.764;2023-04-06T14:14:46;23.10;26.10
75738;DHT22;64356;45.638;13.764;2023-04-06T14:17:12;23.10;26.10
75738;DHT22;64356;45.638;13.764;2023-04-06T14:19:38;23.10;26.20
75738;DHT22;64356;45.638;13.764;2023-04-06T14:22:04;23.10;26.30
75738;DHT22;64356;45.638;13.764;2023-04-06T14:24:30;23.10;26.50
75738;DHT22;64356;45.638;13.764;2023-04-06T14:26:56;23.10;26.50
75738;DHT22;64356;45.638;13.764;2023-04-06T14:29:23;23.10;26.30
75738;DHT22;64356;45.638;13.764;2023-04-06T14:31:49;23.10;26.60
75738;DHT22;64356;45.638;13.764;2023-04-06T14:34:14;23.10;26.90
75738;DHT22;64356;45.638;13.764;2023-04-06T14:36:42;23.10;26.90
75738;DHT22;64356;45.638;13.764;2023-04-06T14:39:08;23.10;27.10
75738;DHT22;64356;45.638;13.764;2023-04-06T14:41:35;23.10;27.50
75738;DHT22;64356;45.638;13.764;2023-04-06T14:44:01;23.10;27.50
75738;DHT22;64356;45.638;13.764;2023-04-06T14:46:27;23.10;27.10
75738;DHT22;64356;45.638;13.764;2023-04-06T14:48:57;23.00;27.20
75738;DHT22;64356;45.638;13.764;2023-04-06T14:51:26;23.00;27.20
75738;DHT22;64356;45.638;13.764;2023-04-06T14:53:55;23.00;27.30
75738;DHT22;64356;45.638;13.764;2023-04-06T14:56:24;23.00;27.30
75738;DHT22;64356;45.638;13.764;2023-04-06T14:58:50;23.00;27.50
75738;DHT22;64356;45.638;13.764;2023-04-06T15:01:18;23.00;27.50
75738;DHT22;64356;45.638;13.764;2023-04-06T15:03:45;23.00;27.50
75738;DHT22;64356;45.638;13.764;2023-04-06T15:06:13;23.00;27.50
75738;DHT22;64356;45.638;13.764;2023-04-06T15:08:43;23.10;27.80
75738;DHT22;64356;45.638;13.764;2023-04-06T15:11:09;23.10;27.90
75738;DHT22;64356;45.638;13.764;2023-04-06T15:13:36;23.00;27.80
75738;DHT22;64356;45.638;13.764;2023-04-06T15:16:01;23.00;28.40
75738;DHT22;64356;45.638;13.764;2023-04-06T15:18:27;23.00;28.10
75738;DHT22;64356;45.638;13.764;2023-04-06T15:20:53;22.90;28.30
75738;DHT22;64356;45.638;13.764;2023-04-06T15:23:18;22.90;28.30